Terminal Aerodrome Forecast
Issued by NWS

Home | Current Version | Previous Version | Text Only | Print | Product List | Glossary On
Versions: 1 2 3 4 5 6 7 8 9 10 11 12 13 14 15 16 17 18 19 20 21
000
FTUS46 KMTR 012300
TAFSFO
TAF
KSFO 012339Z 0200/0306 29020KT P6SM SKC
     FM020300 29010KT P6SM SKC
     FM020900 29006KT P6SM SCT010
     FM021800 29011KT P6SM FEW010
     FM022100 29018KT P6SM SKC=

USA.gov is the U.S. government's official web portal to all federal, state and local government web resources and services.